Time;durP1;ratioP1;P1;durP2;ratioP2;P2;SDS_P1;SDS_P2;PMS_P1;PMS_P2;Temp;Humidity;BMP_temperature;BMP_pressure;BME280_temperature;BME280_humidity;BME280_pressure;Samples;Min_cycle;Max_cycle;Signal;HPM_P1;HPM_P2
2022/06/19 00:02:12;;;;;;;6.95;5.72;;;;;;;13.70;68.27;99771.98;1632320;87;21389;-82
2022/06/19 00:04:40;;;;;;;6.33;5.50;;;;;;;13.67;68.37;99772.98;1632197;87;21110;-81
2022/06/19 00:07:07;;;;;;;7.55;5.70;;;;;;;13.66;68.57;99772.58;1632173;87;21531;-82
2022/06/19 00:09:33;;;;;;;9.18;6.65;;;;;;;13.64;68.55;99773.11;1632306;87;21649;-81
2022/06/19 00:12:00;;;;;;;11.25;6.22;;;;;;;13.61;68.64;99773.23;1632040;87;22114;-80
2022/06/19 00:14:27;;;;;;;8.00;5.90;;;;;;;13.59;68.65;99776.42;1632518;87;21494;-81
2022/06/19 00:16:55;;;;;;;8.48;5.80;;;;;;;13.60;68.59;99778.16;1632092;87;21585;-82
2022/06/19 00:19:21;;;;;;;11.90;5.92;;;;;;;13.60;68.75;99775.95;1632118;87;21016;-81
2022/06/19 00:21:48;;;;;;;7.97;5.80;;;;;;;13.58;68.83;99778.66;1632069;87;21111;-81
2022/06/19 00:24:14;;;;;;;9.20;5.70;;;;;;;13.53;69.00;99777.55;1632138;87;21067;-81
2022/06/19 00:26:42;;;;;;;7.50;5.25;;;;;;;13.51;69.02;99772.77;1632224;87;21132;-78
2022/06/19 00:29:08;;;;;;;8.03;5.62;;;;;;;13.49;69.18;99770.66;1631831;87;21159;-81
2022/06/19 00:31:34;;;;;;;7.17;5.35;;;;;;;13.46;69.06;99774.75;1632203;87;21090;-81
2022/06/19 00:34:03;;;;;;;8.28;5.22;;;;;;;13.43;69.07;99766.98;1631866;87;21182;-81
2022/06/19 00:36:30;;;;;;;7.05;5.40;;;;;;;13.43;68.95;99766.09;1632009;87;21107;-81
2022/06/19 00:38:57;;;;;;;10.25;5.20;;;;;;;13.43;69.02;99768.74;1632124;87;21169;-82
2022/06/19 00:41:24;;;;;;;9.23;5.05;;;;;;;13.43;69.03;99774.03;1631999;87;21072;-81
2022/06/19 00:44:04;;;;;;;8.45;5.28;;;;;;;13.41;68.71;99767.95;1631973;87;22305;-83
2022/06/19 00:47:01;;;;;;;6.05;4.92;;;;;;;13.42;68.49;99769.21;1631904;87;21520;-81
2022/06/19 00:49:39;;;;;;;6.97;5.28;;;;;;;13.44;68.06;99777.08;1631994;87;21138;-83
2022/06/19 00:52:12;;;;;;;9.23;5.22;;;;;;;13.45;68.07;99776.14;1631798;87;21155;-81
2022/06/19 00:54:59;;;;;;;7.30;5.47;;;;;;;13.45;68.36;99777.45;1632076;87;21097;-81
2022/06/19 00:57:27;;;;;;;6.62;4.35;;;;;;;13.44;68.18;99774.44;1630973;87;21048;-80
2022/06/19 01:00:11;;;;;;;9.05;4.87;;;;;;;13.43;68.27;99779.31;1632003;87;21044;-81
2022/06/19 01:02:40;;;;;;;6.08;4.90;;;;;;;13.42;68.19;99781.11;1632004;87;21146;-81
2022/06/19 01:05:07;;;;;;;5.72;4.55;;;;;;;13.40;68.55;99774.15;1632534;87;21129;-81
2022/06/19 01:07:35;;;;;;;6.60;4.75;;;;;;;13.41;68.55;99770.59;1632309;87;21212;-80
2022/06/19 01:10:01;;;;;;;10.95;4.80;;;;;;;13.41;68.14;99771.92;1632632;87;21067;-80
2022/06/19 01:12:29;;;;;;;5.75;4.58;;;;;;;13.42;67.65;99771.01;1632333;87;21079;-81
2022/06/19 01:15:03;;;;;;;6.58;4.15;;;;;;;13.42;67.92;99771.01;1632306;87;21162;-82
2022/06/19 01:17:32;;;;;;;8.18;4.53;;;;;;;13.42;68.34;99765.72;1632488;87;21173;-82
2022/06/19 01:20:09;;;;;;;7.78;4.92;;;;;;;13.42;68.14;99767.04;1613558;88;21130;-81
2022/06/19 01:23:01;;;;;;;4.85;4.40;;;;;;;13.40;68.04;99771.06;1662321;86;23109;-82
2022/06/19 01:25:31;;;;;;;5.33;4.15;;;;;;;13.38;67.76;99767.16;1662350;86;22269;-82
2022/06/19 01:31:01;;;;;;;9.75;4.65;;;;;;;13.34;68.45;99770.84;1662365;86;21464;-80
2022/06/19 01:33:35;;;;;;;5.62;4.55;;;;;;;13.33;68.69;99768.27;1662166;86;21098;-82
2022/06/19 01:36:02;;;;;;;5.25;4.80;;;;;;;13.30;68.93;99768.38;1662130;86;21101;-82
2022/06/19 01:38:28;;;;;;;5.85;4.20;;;;;;;13.27;69.10;99773.32;1662418;86;21111;-81
2022/06/19 01:41:00;;;;;;;4.80;4.05;;;;;;;13.23;69.16;99777.03;1662364;86;21196;-82
2022/06/19 01:43:28;;;;;;;5.12;3.95;;;;;;;13.20;69.12;99773.19;1661832;86;21107;-82
2022/06/19 01:45:56;;;;;;;4.03;3.70;;;;;;;13.19;69.16;99772.30;1672062;84;21088;-82
2022/06/19 01:48:26;;;;;;;8.50;3.85;;;;;;;13.20;68.49;99767.91;1659285;86;21542;-82
2022/06/19 01:50:55;;;;;;;4.25;3.90;;;;;;;13.23;68.19;99782.75;1611893;87;21166;-82
2022/06/19 01:53:33;;;;;;;6.90;4.78;;;;;;;13.24;68.16;99776.08;1659047;86;21470;-82
2022/06/19 01:56:00;;;;;;;4.05;3.75;;;;;;;13.26;68.27;99780.84;1658794;86;21140;-82
2022/06/19 01:58:28;;;;;;;4.28;3.87;;;;;;;13.31;68.50;99773.58;1664890;85;21648;-82
2022/06/19 02:00:55;;;;;;;6.75;3.77;;;;;;;13.34;68.54;99775.28;1671263;85;21586;-81
2022/06/19 02:03:43;;;;;;;5.03;4.10;;;;;;;13.36;68.43;99778.27;1671276;85;21032;-81
2022/06/19 02:06:13;;;;;;;5.45;3.70;;;;;;;13.38;68.06;99772.45;1671436;85;21610;-81
2022/06/19 02:08:42;;;;;;;7.15;3.80;;;;;;;13.42;68.23;99772.33;1671407;85;21006;-82
2022/06/19 02:11:09;;;;;;;5.30;3.47;;;;;;;13.45;68.01;99777.45;1671314;85;21092;-82
2022/06/19 02:13:36;;;;;;;3.90;3.60;;;;;;;13.49;67.83;99775.09;1671219;85;21100;-82
2022/06/19 02:16:05;;;;;;;5.40;3.72;;;;;;;13.53;67.83;99780.64;1666778;85;21081;-82
2022/06/19 02:18:36;;;;;;;5.95;4.25;;;;;;;13.57;67.78;99782.24;1666925;85;21089;-83
2022/06/19 02:21:05;;;;;;;3.80;3.50;;;;;;;13.62;67.54;99783.38;1671292;85;21192;-82
2022/06/19 02:23:36;;;;;;;7.87;3.67;;;;;;;13.67;67.34;99778.28;1671575;85;21088;-83
2022/06/19 02:26:06;;;;;;;7.60;3.75;;;;;;;13.73;67.28;99780.67;1671183;85;21055;-80
2022/06/19 02:28:36;;;;;;;8.25;3.62;;;;;;;13.78;67.18;99784.88;1671659;85;21054;-83
2022/06/19 02:31:06;;;;;;;10.25;3.87;;;;;;;13.82;67.24;99789.09;1671223;85;21014;-82
2022/06/19 02:33:37;;;;;;;8.33;3.75;;;;;;;13.85;67.05;99788.97;1671605;85;21331;-82
2022/06/19 02:36:26;;;;;;;8.38;3.45;;;;;;;13.88;67.05;99787.52;1671107;85;21109;-83
2022/06/19 02:38:53;;;;;;;4.05;3.70;;;;;;;13.91;67.03;99789.56;1661322;85;21027;-81
2022/06/19 02:41:20;;;;;;;11.12;3.80;;;;;;;13.97;67.51;99792.42;1671284;85;21017;-81
2022/06/19 02:43:47;;;;;;;5.67;3.60;;;;;;;13.98;67.99;99796.77;1667367;85;21132;-84
2022/06/19 02:46:13;;;;;;;5.45;3.70;;;;;;;14.02;67.47;99796.16;1671194;85;21134;-82
2022/06/19 02:48:40;;;;;;;5.70;3.17;;;;;;;14.05;67.35;99790.27;1653232;85;21086;-82
2022/06/19 02:51:07;;;;;;;4.33;3.58;;;;;;;14.07;67.48;99789.75;1645591;87;21490;-82
2022/06/19 02:53:34;;;;;;;4.28;3.05;;;;;;;14.11;67.53;99796.61;1589370;90;21558;-82
2022/06/19 02:56:01;;;;;;;3.75;3.40;;;;;;;14.15;67.50;99788.06;1638806;87;21161;-83
2022/06/19 02:58:27;;;;;;;5.03;4.03;;;;;;;14.19;67.41;99789.67;1645879;87;21147;-83
2022/06/19 03:00:54;;;;;;;4.83;3.45;;;;;;;14.23;67.34;99785.94;1639258;87;21170;-83
2022/06/19 03:03:35;;;;;;;5.20;3.40;;;;;;;14.30;67.32;99787.84;1639215;87;21629;-82
2022/06/19 03:06:03;;;;;;;5.72;2.92;;;;;;;14.36;67.38;99786.25;1639425;87;21103;-82
2022/06/19 03:08:30;;;;;;;5.03;3.30;;;;;;;14.42;67.48;99789.06;1639121;87;21069;-82
2022/06/19 03:10:58;;;;;;;3.85;3.40;;;;;;;14.46;67.50;99782.24;1639145;87;21180;-81
2022/06/19 03:13:25;;;;;;;4.28;3.17;;;;;;;14.53;67.44;99775.34;1639129;87;21126;-82
2022/06/19 03:16:07;;;;;;;3.70;3.42;;;;;;;14.58;67.41;99770.70;1639084;87;21102;-83
2022/06/19 03:18:35;;;;;;;3.98;3.52;;;;;;;14.64;67.19;99769.09;1639267;87;21039;-83
2022/06/19 03:21:01;;;;;;;3.72;3.30;;;;;;;14.70;67.15;99764.84;1639494;87;21039;-82
2022/06/19 03:23:28;;;;;;;3.42;3.12;;;;;;;14.76;67.23;99768.53;1639024;87;21134;-84
2022/06/19 03:25:54;;;;;;;3.58;3.20;;;;;;;14.84;66.96;99769.47;1639131;87;21146;-84
2022/06/19 03:28:21;;;;;;;5.03;3.40;;;;;;;14.90;66.89;99770.98;1639450;87;21131;-83
2022/06/19 03:30:53;;;;;;;4.97;3.20;;;;;;;14.99;66.95;99767.88;1639240;87;21091;-82
2022/06/19 03:33:20;;;;;;;3.37;3.10;;;;;;;15.07;66.73;99768.36;1638786;87;21413;-83
2022/06/19 03:35:46;;;;;;;7.85;3.10;;;;;;;15.13;66.66;99766.74;1639459;87;21071;-84
2022/06/19 03:38:13;;;;;;;6.03;3.20;;;;;;;15.21;66.55;99772.97;1639242;87;21141;-83
2022/06/19 03:40:39;;;;;;;3.22;2.98;;;;;;;15.30;66.83;99767.67;1639168;87;21146;-83
2022/06/19 03:43:06;;;;;;;6.05;2.80;;;;;;;15.37;66.53;99763.32;1639050;87;21087;-81
2022/06/19 03:45:32;;;;;;;6.30;3.10;;;;;;;15.46;66.71;99761.98;1641010;87;21098;-82
2022/06/19 03:47:59;;;;;;;3.67;2.92;;;;;;;15.56;66.25;99757.08;1640591;87;22021;-82
2022/06/19 03:50:27;;;;;;;3.62;3.30;;;;;;;15.64;66.19;99760.20;1618851;88;21140;-84
2022/06/19 03:52:54;;;;;;;3.55;3.08;;;;;;;15.73;65.68;99765.48;1646244;87;21660;-84
2022/06/19 03:55:20;;;;;;;6.22;3.00;;;;;;;15.81;65.71;99765.98;1618916;88;21058;-83
2022/06/19 03:57:47;;;;;;;4.00;3.40;;;;;;;15.90;66.02;99769.50;1618872;88;21013;-84
2022/06/19 04:00:16;;;;;;;12.10;3.30;;;;;;;16.02;65.57;99761.80;1612163;88;21163;-84
2022/06/19 04:02:44;;;;;;;3.75;3.40;;;;;;;16.10;65.49;99757.80;1611886;89;21094;-85
2022/06/19 04:05:12;;;;;;;4.30;3.25;;;;;;;16.20;64.94;99759.97;1639331;87;21093;-82
2022/06/19 04:07:45;;;;;;;6.28;3.22;;;;;;;16.29;64.69;99760.33;1639112;87;21093;-84
2022/06/19 04:10:12;;;;;;;4.05;2.98;;;;;;;16.38;64.48;99764.76;1611756;89;21157;-84
2022/06/19 04:12:38;;;;;;;3.30;2.90;;;;;;;16.47;64.25;99763.76;1636307;87;21468;-84
2022/06/19 04:15:05;;;;;;;3.20;2.90;;;;;;;16.54;64.00;99764.28;1639333;87;21111;-82
2022/06/19 04:17:33;;;;;;;4.85;3.10;;;;;;;16.63;64.26;99757.63;1639029;87;21139;-83
2022/06/19 04:20:01;;;;;;;6.75;2.83;;;;;;;16.72;64.06;99759.75;1639417;87;21139;-83
2022/06/19 04:22:28;;;;;;;5.10;3.02;;;;;;;16.82;64.07;99765.41;1638975;87;21136;-83
2022/06/19 04:24:55;;;;;;;3.50;2.80;;;;;;;16.92;63.87;99763.97;1639380;87;21099;-82
2022/06/19 04:27:23;;;;;;;8.80;2.80;;;;;;;17.01;63.19;99766.12;1639165;87;21002;-84
2022/06/19 04:29:50;;;;;;;2.80;2.60;;;;;;;17.11;62.85;99764.24;1639212;87;21754;-85
2022/06/19 04:32:16;;;;;;;4.17;2.58;;;;;;;17.22;63.61;99763.16;1639074;87;21180;-84
2022/06/19 04:34:43;;;;;;;4.55;2.80;;;;;;;17.33;63.21;99763.39;1639493;87;21116;-86
2022/06/19 04:37:09;;;;;;;4.62;2.72;;;;;;;17.45;62.01;99761.33;1639088;87;21129;-85
2022/06/19 04:39:37;;;;;;;5.47;2.67;;;;;;;17.54;62.26;99756.42;1639200;87;21058;-85
2022/06/19 04:42:06;;;;;;;4.28;2.58;;;;;;;17.66;61.54;99762.33;1639444;87;21195;-85
2022/06/19 04:44:33;;;;;;;5.10;2.70;;;;;;;17.76;61.45;99760.81;1639203;87;21089;-84
2022/06/19 04:47:00;;;;;;;4.05;2.75;;;;;;;17.89;61.73;99757.46;1639075;85;21230;-84
2022/06/19 04:49:27;;;;;;;3.35;2.70;;;;;;;18.00;61.39;99758.52;1639087;87;21808;-84
2022/06/19 04:51:54;;;;;;;2.33;2.22;;;;;;;18.11;60.75;99755.17;1639103;87;21112;-83
2022/06/19 04:54:20;;;;;;;3.85;2.52;;;;;;;18.22;60.63;99756.31;1639060;87;21143;-84
2022/06/19 04:56:48;;;;;;;2.85;2.30;;;;;;;18.35;61.09;99750.59;1665005;85;21173;-84
2022/06/19 04:59:15;;;;;;;2.77;2.40;;;;;;;18.48;60.27;99764.00;1672502;85;21137;-86
2022/06/19 05:01:43;;;;;;;2.37;2.17;;;;;;;18.60;60.39;99761.88;1673923;85;21149;-85
2022/06/19 05:04:11;;;;;;;2.47;2.00;;;;;;;18.74;59.66;99760.98;1673972;85;21024;-85
2022/06/19 05:06:39;;;;;;;4.95;2.62;;;;;;;18.88;59.04;99760.98;1674197;85;21082;-86
2022/06/19 05:09:05;;;;;;;3.35;2.05;;;;;;;19.02;59.53;99760.56;1674407;85;21133;-84
2022/06/19 05:11:33;;;;;;;2.30;2.10;;;;;;;19.17;58.38;99759.55;1674231;85;21149;-86
2022/06/19 05:14:01;;;;;;;5.53;2.37;;;;;;;19.34;57.90;99760.23;1674676;85;21118;-86
2022/06/19 05:16:29;;;;;;;3.30;2.20;;;;;;;19.48;57.51;99757.47;1674349;85;21188;-85
2022/06/19 05:18:56;;;;;;;2.72;2.52;;;;;;;19.64;56.43;99755.97;1674703;85;21101;-84
2022/06/19 05:21:24;;;;;;;5.67;1.92;;;;;;;19.79;55.47;99757.61;1674659;85;21031;-82
2022/06/19 05:23:51;;;;;;;2.50;2.30;;;;;;;19.93;54.93;99765.98;1674989;85;21141;-84
2022/06/19 05:26:28;;;;;;;2.98;2.25;;;;;;;20.07;54.33;99762.34;1674596;85;21587;-85
2022/06/19 05:28:55;;;;;;;2.20;1.80;;;;;;;20.19;53.93;99764.63;1674280;85;21090;-85
2022/06/19 05:31:22;;;;;;;5.10;2.02;;;;;;;20.30;53.76;99763.89;1674668;85;21172;-85
2022/06/19 05:33:49;;;;;;;3.58;1.80;;;;;;;20.40;53.96;99765.78;1674185;85;21074;-85
2022/06/19 05:36:16;;;;;;;12.07;1.80;;;;;;;20.56;52.56;99774.03;1674707;85;21027;-83
2022/06/19 05:38:43;;;;;;;3.92;1.32;;;;;;;20.69;51.70;99774.04;1674439;85;21166;-83
2022/06/19 05:41:09;;;;;;;3.42;1.85;;;;;;;20.82;51.04;99774.02;1646523;85;21143;-84
2022/06/19 05:43:37;;;;;;;2.85;1.30;;;;;;;20.92;50.81;99767.02;1643714;85;21637;-83
2022/06/19 05:46:08;;;;;;;1.95;1.57;;;;;;;21.01;51.17;99777.02;1643735;87;21091;-83
2022/06/19 05:48:36;;;;;;;3.22;1.35;;;;;;;21.06;51.11;99770.84;1643364;87;21380;-86
2022/06/19 05:51:10;;;;;;;5.30;1.65;;;;;;;21.13;51.00;99779.27;1642963;87;21170;-84
2022/06/19 05:53:42;;;;;;;2.10;1.60;;;;;;;21.18;51.06;99774.92;1643229;87;21028;-86
2022/06/19 05:56:09;;;;;;;3.33;1.35;;;;;;;21.25;51.02;99779.70;1643379;87;21019;-84
2022/06/19 05:58:36;;;;;;;1.47;1.37;;;;;;;21.35;51.46;99781.22;1643180;87;21058;-85
2022/06/19 06:01:04;;;;;;;5.35;1.40;;;;;;;21.45;50.75;99783.56;1643039;87;21150;-87
2022/06/19 06:03:31;;;;;;;5.75;1.17;;;;;;;21.54;49.89;99781.19;1642651;87;21175;-85
2022/06/19 06:06:04;;;;;;;1.20;1.07;;;;;;;21.60;48.83;99785.59;1643064;87;21632;-82
2022/06/19 06:08:31;;;;;;;3.30;1.35;;;;;;;21.62;48.40;99777.41;1643007;87;21091;-87
2022/06/19 06:10:59;;;;;;;4.22;1.40;;;;;;;21.66;47.90;99781.58;1642903;87;21135;-85
2022/06/19 06:13:29;;;;;;;4.37;1.17;;;;;;;21.69;48.12;99776.84;1643400;87;21079;-84
2022/06/19 06:15:54;;;;;;;2.25;1.05;;;;;;;21.77;47.69;99778.94;1643087;87;21589;-86
2022/06/19 06:18:21;;;;;;;1.92;1.22;;;;;;;21.86;48.00;99775.53;1643033;87;21055;-87
2022/06/19 06:21:01;;;;;;;1.65;1.10;;;;;;;21.95;48.07;99782.49;1644089;87;21181;-85
2022/06/19 06:23:28;;;;;;;4.40;1.07;;;;;;;22.05;47.53;99788.84;1643268;87;21629;-86
2022/06/19 06:26:03;;;;;;;2.05;1.40;;;;;;;22.15;47.36;99784.45;1643729;87;22212;-83
2022/06/19 06:28:30;;;;;;;1.17;0.82;;;;;;;22.24;47.98;99779.73;1643049;87;22445;-82
2022/06/19 06:30:57;;;;;;;3.85;1.27;;;;;;;22.37;46.46;99777.44;1643144;87;21124;-86
2022/06/19 06:33:25;;;;;;;1.67;1.17;;;;;;;22.44;46.52;99777.30;1642946;87;21762;-82
2022/06/19 06:35:52;;;;;;;1.77;1.02;;;;;;;22.48;46.33;99775.22;1642821;87;21511;-82
2022/06/19 06:38:18;;;;;;;3.58;1.00;;;;;;;22.51;46.30;99774.98;1643123;87;21733;-87
2022/06/19 06:40:47;;;;;;;1.05;0.90;;;;;;;22.55;46.62;99779.14;1643314;87;21805;-86
2022/06/19 06:43:13;;;;;;;2.30;1.02;;;;;;;22.62;45.37;99783.02;1642747;87;21672;-86
2022/06/19 06:45:40;;;;;;;1.20;1.12;;;;;;;22.65;45.05;99777.91;1642673;87;22317;-86
2022/06/19 06:48:06;;;;;;;1.47;1.02;;;;;;;22.66;45.90;99780.94;1642919;87;21147;-84
2022/06/19 06:50:33;;;;;;;6.40;1.10;;;;;;;22.71;45.71;99769.34;1642901;87;21114;-84
2022/06/19 06:53:00;;;;;;;3.12;1.00;;;;;;;22.78;45.99;99769.23;1642936;87;21195;-84
2022/06/19 06:55:27;;;;;;;2.65;1.00;;;;;;;22.87;46.11;99776.52;1642903;87;21141;-87
2022/06/19 06:57:53;;;;;;;1.12;1.00;;;;;;;22.95;45.43;99774.56;1647544;85;21146;-85
2022/06/19 07:00:21;;;;;;;3.70;1.05;;;;;;;23.00;45.50;99763.80;1633932;87;21091;-86
2022/06/19 07:02:50;;;;;;;1.55;1.20;;;;;;;23.10;44.64;99771.09;1609989;89;21110;-85
2022/06/19 07:05:17;;;;;;;1.60;0.93;;;;;;;23.14;43.96;99756.47;1637490;87;21246;-87
2022/06/19 07:07:43;;;;;;;4.85;1.00;;;;;;;23.16;44.01;99755.34;1610016;89;21188;-86
2022/06/19 07:10:11;;;;;;;2.60;0.78;;;;;;;23.18;44.90;99756.56;1667288;86;21098;-88
2022/06/19 07:12:38;;;;;;;3.35;1.00;;;;;;;23.23;43.52;99761.55;1667154;86;21035;-85
2022/06/19 07:15:06;;;;;;;1.27;0.80;;;;;;;23.25;43.86;99752.41;1667583;85;21043;-83
2022/06/19 07:17:32;;;;;;;2.20;1.05;;;;;;;23.31;44.50;99755.89;1667528;86;21168;-85
2022/06/19 07:19:59;;;;;;;2.12;0.85;;;;;;;23.40;43.65;99748.05;1667572;86;21114;-87
2022/06/19 07:22:26;;;;;;;2.52;0.70;;;;;;;23.43;43.59;99742.42;1667521;85;21170;-87
2022/06/19 07:24:52;;;;;;;7.80;1.00;;;;;;;23.44;43.06;99726.18;1667315;86;21016;-82
2022/06/19 07:27:19;;;;;;;1.10;0.90;;;;;;;23.52;43.37;99736.28;1667668;86;21061;-81
2022/06/19 07:29:45;;;;;;;0.88;0.80;;;;;;;23.63;44.45;99730.82;1667314;86;21579;-82
2022/06/19 07:32:12;;;;;;;1.07;0.98;;;;;;;23.72;43.53;99721.98;1667395;85;21165;-85
2022/06/19 07:34:41;;;;;;;1.75;0.70;;;;;;;23.82;42.65;99719.86;1667308;86;21097;-82
2022/06/19 07:37:13;;;;;;;0.78;0.68;;;;;;;23.90;42.38;99718.70;1683867;84;21159;-86
2022/06/19 07:39:40;;;;;;;1.10;0.65;;;;;;;23.99;40.32;99727.80;1700432;84;21166;-83
2022/06/19 07:42:10;;;;;;;1.17;0.55;;;;;;;24.00;39.94;99720.94;1699979;84;21136;-85
2022/06/19 07:44:39;;;;;;;1.47;0.72;;;;;;;24.00;39.85;99716.07;1700186;84;21076;-82
2022/06/19 07:50:13;;;;;;;1.30;0.57;;;;;;;24.02;41.28;99708.22;1699891;84;21112;-85
2022/06/19 07:52:46;;;;;;;1.22;0.70;;;;;;;24.08;39.24;99711.72;1700108;84;21651;-82
2022/06/19 07:55:15;;;;;;;1.35;0.60;;;;;;;24.14;40.00;99704.09;1699903;84;21171;-83
2022/06/19 07:57:42;;;;;;;1.00;0.90;;;;;;;24.20;40.26;99706.25;1647186;86;21186;-82
2022/06/19 08:00:16;;;;;;;0.50;0.50;;;;;;;24.25;39.71;99708.04;1663528;86;21589;-84
2022/06/19 08:02:41;;;;;;;2.50;0.70;;;;;;;24.27;39.60;99704.20;1658873;86;21586;-82
2022/06/19 08:05:11;;;;;;;4.80;0.60;;;;;;;24.29;40.75;99700.04;1659134;86;21079;-86
2022/06/19 08:07:38;;;;;;;5.37;0.80;;;;;;;24.35;39.28;99702.70;1658861;85;21170;-82
2022/06/19 08:10:08;;;;;;;1.22;0.70;;;;;;;24.40;38.15;99710.70;1659319;85;21016;-80
2022/06/19 08:12:35;;;;;;;0.93;0.60;;;;;;;24.43;38.35;99705.55;1659043;86;21096;-83
2022/06/19 08:15:02;;;;;;;1.30;0.60;;;;;;;24.49;37.25;99699.60;1659220;86;21122;-83
2022/06/19 08:17:29;;;;;;;1.75;0.55;;;;;;;24.55;36.97;99692.88;1658987;85;21094;-86
2022/06/19 08:19:56;;;;;;;1.37;0.70;;;;;;;24.57;37.22;99693.58;1659180;86;21484;-81
2022/06/19 08:22:23;;;;;;;5.05;0.60;;;;;;;24.61;37.60;99694.52;1658853;86;21002;-84
2022/06/19 08:24:50;;;;;;;1.20;0.82;;;;;;;24.67;36.97;99698.47;1634676;86;21079;-80
2022/06/19 08:27:17;;;;;;;1.52;0.78;;;;;;;24.69;36.97;99687.07;1659140;86;21101;-80
2022/06/19 08:29:44;;;;;;;1.20;0.72;;;;;;;24.72;37.68;99685.45;1643755;87;21079;-82
2022/06/19 08:32:11;;;;;;;0.82;0.80;;;;;;;24.82;37.76;99696.23;1644020;87;21544;-82
2022/06/19 08:34:38;;;;;;;1.80;0.82;;;;;;;24.93;38.67;99700.61;1643991;87;21035;-83
2022/06/19 08:37:06;;;;;;;5.80;2.20;;;;;;;25.00;37.74;99697.73;1643846;87;21149;-81
2022/06/19 08:39:33;;;;;;;1.20;1.10;;;;;;;25.05;38.19;99692.77;1644383;87;21107;-84
2022/06/19 08:42:27;;;;;;;2.77;0.62;;;;;;;25.05;37.35;99679.31;1643793;87;21205;-83
2022/06/19 08:45:21;;;;;;;1.65;0.90;;;;;;;25.11;38.44;99685.45;1643924;87;21181;-81
2022/06/19 08:48:10;;;;;;;;;;;;;;;25.22;37.73;99680.44;1646369;87;21035;-82
2022/06/19 08:50:54;;;;;;;2.35;0.60;;;;;;;25.36;37.51;99687.24;1658607;86;20220;-85
2022/06/19 08:53:51;;;;;;;0.85;0.53;;;;;;;25.48;36.34;99681.20;1640506;86;21094;-83
2022/06/19 08:56:44;;;;;;;2.37;0.65;;;;;;;25.52;36.67;99684.81;1625645;88;21178;-84
2022/06/19 08:59:19;;;;;;;1.95;0.68;;;;;;;25.62;36.25;99689.31;1624726;88;21893;-83
2022/06/19 09:02:31;;;;;;;1.15;0.65;;;;;;;25.64;35.48;99682.80;1624700;87;21099;-84
2022/06/19 09:08:12;;;;;;;1.65;0.50;;;;;;;25.55;37.18;99677.79;1625029;88;21103;-83
2022/06/19 09:11:22;;;;;;;4.97;0.82;;;;;;;25.59;35.39;99682.39;1625382;88;21654;-84
2022/06/19 09:14:20;;;;;;;2.10;0.60;;;;;;;25.63;37.08;99679.73;1625416;88;21106;-82
2022/06/19 09:17:12;;;;;;;1.52;0.40;;;;;;;25.78;35.16;99672.87;1624993;88;21044;-83
2022/06/19 09:19:57;;;;;;;2.20;0.50;;;;;;;25.88;35.02;99662.06;1624973;88;21590;-85
2022/06/19 09:22:41;;;;;;;1.33;0.63;;;;;;;25.96;35.16;99666.75;1625016;88;21110;-80
2022/06/19 09:25:31;;;;;;;0.70;0.62;;;;;;;25.99;35.33;99661.55;1625160;88;21527;-82
2022/06/19 09:28:07;;;;;;;1.52;0.65;;;;;;;26.00;34.86;99661.91;1624728;88;41622;-82
2022/06/19 09:30:53;;;;;;;1.60;0.55;;;;;;;26.03;35.09;99650.83;1651470;86;21066;-87
2022/06/19 09:33:31;;;;;;;2.77;0.60;;;;;;;26.06;34.82;99649.19;1659133;86;21472;-81
2022/06/19 09:36:19;;;;;;;2.17;0.45;;;;;;;26.12;35.10;99647.22;1654574;86;21118;-84
2022/06/19 09:39:12;;;;;;;3.70;0.40;;;;;;;26.24;34.47;99654.13;1659189;86;21066;-79
2022/06/19 09:41:46;;;;;;;0.70;0.60;;;;;;;26.26;33.31;99641.81;1627919;86;21164;-83
2022/06/19 09:44:19;;;;;;;;;;;;;;;26.24;34.91;99641.13;1661730;85;21105;-79
2022/06/19 09:46:54;;;;;;;0.60;0.50;;;;;;;26.32;35.86;99639.36;1659685;85;20200;-82
2022/06/19 09:49:31;;;;;;;5.85;0.50;;;;;;;26.45;34.91;99631.42;1658965;86;21125;-83
2022/06/19 09:52:09;;;;;;;0.82;0.50;;;;;;;26.51;34.19;99633.48;1659385;86;21089;-82
2022/06/19 09:54:50;;;;;;;3.55;0.88;;;;;;;26.58;35.00;99637.77;1659146;86;21167;-84
2022/06/19 09:57:31;;;;;;;2.25;0.75;;;;;;;26.65;34.12;99629.46;1659464;86;21504;-83
2022/06/19 10:00:12;;;;;;;1.62;0.75;;;;;;;26.72;33.08;99629.70;1659556;85;21033;-86
2022/06/19 10:02:50;;;;;;;3.80;0.90;;;;;;;26.75;33.16;99642.86;1667857;86;22354;-82
2022/06/19 10:05:40;;;;;;;2.80;0.60;;;;;;;26.69;33.86;99637.08;1667924;86;21128;-84
2022/06/19 10:08:23;;;;;;;1.12;0.60;;;;;;;26.68;32.86;99639.45;1689585;84;21207;-86
2022/06/19 10:10:56;;;;;;;3.60;0.70;;;;;;;26.65;33.46;99634.86;1647378;84;21125;-84
2022/06/19 10:13:37;;;;;;;1.10;0.72;;;;;;;26.69;32.83;99645.17;1689837;84;21621;-83
2022/06/19 10:16:19;;;;;;;1.25;0.62;;;;;;;26.72;32.88;99638.62;1689618;84;21630;-82
2022/06/19 10:18:52;;;;;;;3.27;1.75;;;;;;;26.80;32.46;99640.57;1678337;84;21118;-81
2022/06/19 10:24:58;;;;;;;2.37;0.90;;;;;;;26.95;33.23;99639.02;1640278;86;21083;-84
2022/06/19 10:27:56;;;;;;;2.27;0.50;;;;;;;27.04;33.50;99647.52;1667461;86;21077;-82
2022/06/19 10:30:48;;;;;;;2.92;0.72;;;;;;;27.06;32.82;99644.14;1686901;85;21032;-83
2022/06/19 10:33:38;;;;;;;14.70;0.55;;;;;;;27.10;32.55;99643.84;1701350;81;21118;-78
2022/06/19 10:36:33;;;;;;;1.95;1.10;;;;;;;27.15;32.70;99639.69;1701522;84;21556;-82
2022/06/19 10:39:20;;;;;;;;;;;;;;;27.25;33.56;99639.56;1669797;86;21592;-84
2022/06/19 10:42:13;;;;;;;2.40;0.50;;;;;;;27.41;33.58;99637.01;1686878;85;20242;-83
2022/06/19 10:45:04;;;;;;;5.12;1.00;;;;;;;27.46;32.44;99631.66;1700948;84;21059;-83
2022/06/19 10:47:50;;;;;;;4.42;0.68;;;;;;;27.42;33.12;99644.64;1667495;85;21118;-83
2022/06/19 10:50:33;;;;;;;1.00;0.68;;;;;;;27.50;33.32;99635.72;1667365;86;21024;-81
2022/06/19 10:53:40;;;;;;;1.05;0.60;;;;;;;27.57;32.91;99638.11;1685581;85;21067;-83
2022/06/19 10:56:47;;;;;;;1.45;0.70;;;;;;;27.58;32.59;99638.47;1701299;84;21177;-84
2022/06/19 10:59:14;;;;;;;5.10;0.50;;;;;;;27.65;32.01;99640.87;1701607;84;21046;-85
2022/06/19 11:04:39;;;;;;;1.57;0.60;;;;;;;27.69;32.83;99624.69;1701321;84;22230;-85
2022/06/19 11:07:13;;;;;;;2.45;0.70;;;;;;;27.73;33.24;99625.21;1691786;84;21017;-84
2022/06/19 11:09:46;;;;;;;5.83;0.82;;;;;;;27.78;31.75;99631.81;1682098;84;21091;-84
2022/06/19 11:12:25;;;;;;;4.85;0.60;;;;;;;27.77;32.52;99627.44;1682181;85;21558;-82
2022/06/19 11:14:56;;;;;;;2.40;0.93;;;;;;;27.78;31.43;99618.30;1682177;84;21043;-84
2022/06/19 11:17:40;;;;;;;4.78;1.50;;;;;;;27.81;31.28;99618.49;1682319;85;21528;-83
2022/06/19 11:20:27;;;;;;;8.33;1.70;;;;;;;27.87;31.68;99614.28;1682565;85;21059;-85
2022/06/19 11:23:25;;;;;;;1.45;0.80;;;;;;;27.88;32.67;99624.10;1682672;85;21020;-82
2022/06/19 11:26:17;;;;;;;2.05;0.60;;;;;;;27.86;31.80;99609.91;1682350;84;21055;-82
2022/06/19 11:28:50;;;;;;;1.95;0.57;;;;;;;27.87;32.48;99604.30;1682573;85;22103;-81
2022/06/19 11:31:22;;;;;;;4.75;0.85;;;;;;;27.97;31.83;99592.05;1682545;85;21215;-84
2022/06/19 11:33:53;;;;;;;4.90;0.80;;;;;;;28.08;31.27;99603.92;1682122;85;21749;-85
2022/06/19 11:36:36;;;;;;;3.80;1.02;;;;;;;28.03;30.93;99599.51;1678158;85;21150;-84
2022/06/19 11:39:33;;;;;;;2.10;0.78;;;;;;;28.01;31.60;99601.54;1682192;85;21074;-83
2022/06/19 11:42:20;;;;;;;2.50;0.80;;;;;;;28.08;32.04;99604.44;1681011;85;21118;-85
2022/06/19 11:44:52;;;;;;;1.10;0.50;;;;;;;28.12;32.13;99592.27;1660837;85;21155;-81
2022/06/19 11:47:18;;;;;;;1.42;0.60;;;;;;;28.24;31.47;99586.03;1682344;84;21519;-82
2022/06/19 11:49:45;;;;;;;1.05;0.60;;;;;;;28.27;31.72;99590.60;1679929;84;21589;-83
2022/06/19 11:52:20;;;;;;;8.38;1.02;;;;;;;28.30;30.78;99578.10;1682220;84;21096;-86
2022/06/19 11:54:48;;;;;;;1.70;0.70;;;;;;;28.34;31.62;99589.44;1679690;84;21165;-82
2022/06/19 11:57:33;;;;;;;3.05;0.90;;;;;;;28.37;30.63;99585.56;1682503;85;21533;-82
2022/06/19 12:00:03;;;;;;;1.45;1.02;;;;;;;28.33;31.18;99581.00;1664158;85;21024;-83
2022/06/19 12:02:37;;;;;;;3.15;0.80;;;;;;;28.39;31.66;99581.66;1682484;85;21064;-82
2022/06/19 12:05:09;;;;;;;2.60;0.85;;;;;;;28.49;31.30;99581.52;1682337;85;21071;-83
2022/06/19 12:07:37;;;;;;;6.25;3.92;;;;;;;28.60;31.29;99572.27;1683352;84;21019;-82
2022/06/19 12:10:08;;;;;;;2.83;2.62;;;;;;;28.74;30.61;99571.58;1686735;85;21173;-83
2022/06/19 12:12:36;;;;;;;2.50;0.90;;;;;;;28.84;30.72;99579.02;1686856;84;21563;-82
2022/06/19 12:15:23;;;;;;;1.15;0.60;;;;;;;28.87;30.39;99573.78;1686706;84;21035;-82